KPHD/PHD METAR and TAF weather

Enter ICAO airport designator
Station Type Date Time Source
KPHD METAR 2022/12/10 01:53 UTC NOAA

KPHD 100153Z AUTO VRB03KT 10SM -RA OVC050 05/M02 A3016 RMK AO2 RAB52 SLP220 P0000 T00501017


Station Type Date Time Source
KPHD Decoded METAR 2022/12/10 01:53 UTC NOAA

NEW PHILADELPHIA CLEVER FLD, OH, United States (KPHD) 40-28N 81-25W 272M
Dec 09, 2022 - 08:53 PM EST / 2022.12.10 0153 UTC
Wind: Variable at 3 MPH (3 KT):0
Visibility: 10 mile(s):0
Sky conditions: overcast
Weather: light rain
Precipitation last hour: A trace
Temperature: 41.0 F (5.0 C)
Dew Point: 28.9 F (-1.7 C)
Relative Humidity: 61%
Pressure (altimeter): 30.16 in. Hg (1021 hPa)
ob: KPHD 100153Z AUTO VRB03KT 10SM -RA OVC050 05/M02 A3016 RMK AO2 RAB52 SLP220 P0000 T00501017
cycle: 2

Station Type Date Time Source
KPHD TAF UTC NOAA

Error!

Example: see airport list